Terminal Aerodrome Forecast
Issued by NWS

Home | Current Version | Previous Version | Text Only | Print | Product List | Glossary On
Versions: 1 2 3 4 5 6 7 8 9 10 11 12 13 14 15 16 17 18 19 20 21 22
422
FTUS43 KDLH 210536
TAFHIB
TAF
KHIB 210536Z 2106/2206 13007KT P6SM OVC002
     FM210800 14004KT 4SM -DZSN OVC002
     FM211000 12003KT 1 1/2SM -DZSN BR OVC002=

USA.gov is the U.S. government's official web portal to all federal, state and local government web resources and services.